Grafton, Virginia
Current Conditions -  °F | °C
As of 7:54 PM on Wednesday 26 Nov 2014 (Local Time) from KPHF Reporting Station
Light Rain Light Rain  
Wind Chill:   Ceiling: 1300
Heat Index:   Visibility: 9mi
Dew Point:   Wind: 8mph
Humidity: 80%   Direction: 310°NW
Pressure: 29.96"   Gusts: NA
Location:  37.1781°N, 76.4669°W
Report Text: KPHF 270054Z 31007KT 9SM -RA BKN013 OVC017 06/03 A2996 RMK AO2 RAB03E16B45 SLP145 P0000 T00610028
Loading
Personal Weather Stations






























Interactive Weather Map New forecast layout! Learn more

10-Day Weather Forecast

Advertisements
Track Severe Weather on mobile